sensor_id;sensor_type;location;lat;lon;timestamp;pressure;altitude;pressure_sealevel;temperature;humidity
2785;BME280;57944;48.722;9.316;2023-04-07T00:01:52;98107.97;;;5.92;100.00
2785;BME280;57944;48.722;9.316;2023-04-07T00:04:24;98111.59;;;5.89;100.00
2785;BME280;57944;48.722;9.316;2023-04-07T00:06:54;98110.81;;;5.89;100.00
2785;BME280;57944;48.722;9.316;2023-04-07T00:09:25;98103.69;;;5.92;100.00
2785;BME280;57944;48.722;9.316;2023-04-07T00:11:55;98099.28;;;5.94;100.00
2785;BME280;57944;48.722;9.316;2023-04-07T00:14:30;98094.69;;;5.98;100.00
2785;BME280;57944;48.722;9.316;2023-04-07T00:17:00;98089.50;;;5.99;100.00
2785;BME280;57944;48.722;9.316;2023-04-07T00:19:31;98094.88;;;5.96;100.00
2785;BME280;57944;48.722;9.316;2023-04-07T00:22:02;98097.06;;;5.91;100.00
2785;BME280;57944;48.722;9.316;2023-04-07T00:24:32;98083.44;;;5.84;100.00
2785;BME280;57944;48.722;9.316;2023-04-07T00:27:05;98083.78;;;5.81;100.00
2785;BME280;57944;48.722;9.316;2023-04-07T00:29:38;98073.97;;;5.78;100.00
2785;BME280;57944;48.722;9.316;2023-04-07T00:32:10;98074.28;;;5.75;100.00
2785;BME280;57944;48.722;9.316;2023-04-07T00:34:41;98077.28;;;5.78;100.00
2785;BME280;57944;48.722;9.316;2023-04-07T00:37:11;98073.66;;;5.81;100.00
2785;BME280;57944;48.722;9.316;2023-04-07T00:39:41;98076.53;;;5.94;100.00
2785;BME280;57944;48.722;9.316;2023-04-07T00:42:12;98069.06;;;5.93;100.00
2785;BME280;57944;48.722;9.316;2023-04-07T00:44:45;98067.63;;;5.90;100.00
2785;BME280;57944;48.722;9.316;2023-04-07T00:47:19;98066.06;;;5.89;100.00
2785;BME280;57944;48.722;9.316;2023-04-07T00:49:49;98058.63;;;5.88;100.00
2785;BME280;57944;48.722;9.316;2023-04-07T00:52:19;98057.84;;;5.87;100.00
2785;BME280;57944;48.722;9.316;2023-04-07T00:54:55;98050.75;;;5.82;100.00
2785;BME280;57944;48.722;9.316;2023-04-07T00:57:27;98047.41;;;5.74;100.00
2785;BME280;57944;48.722;9.316;2023-04-07T01:00:01;98045.84;;;5.73;100.00
2785;BME280;57944;48.722;9.316;2023-04-07T01:02:37;98042.34;;;5.74;100.00
2785;BME280;57944;48.722;9.316;2023-04-07T01:05:15;98034.63;;;5.75;100.00
2785;BME280;57944;48.722;9.316;2023-04-07T01:07:55;98031.94;;;5.77;100.00
2785;BME280;57944;48.722;9.316;2023-04-07T01:10:40;98033.50;;;5.78;100.00
2785;BME280;57944;48.722;9.316;2023-04-07T01:13:22;98030.03;;;5.79;100.00
2785;BME280;57944;48.722;9.316;2023-04-07T01:16:04;98033.50;;;5.86;100.00
2785;BME280;57944;48.722;9.316;2023-04-07T01:18:45;98024.81;;;5.89;100.00
2785;BME280;57944;48.722;9.316;2023-04-07T01:21:18;98024.34;;;5.93;100.00
2785;BME280;57944;48.722;9.316;2023-04-07T01:24:11;98013.28;;;5.94;100.00
2785;BME280;57944;48.722;9.316;2023-04-07T01:26:50;98009.63;;;5.89;100.00
2785;BME280;57944;48.722;9.316;2023-04-07T01:29:28;98015.16;;;5.92;100.00
2785;BME280;57944;48.722;9.316;2023-04-07T01:32:04;98006.63;;;5.93;100.00
2785;BME280;57944;48.722;9.316;2023-04-07T01:34:36;98011.69;;;5.93;100.00
2785;BME280;57944;48.722;9.316;2023-04-07T01:37:07;98008.69;;;5.90;100.00
2785;BME280;57944;48.722;9.316;2023-04-07T01:39:38;98010.41;;;5.89;100.00
2785;BME280;57944;48.722;9.316;2023-04-07T01:42:09;98007.88;;;5.89;100.00
2785;BME280;57944;48.722;9.316;2023-04-07T01:44:43;98009.19;;;5.85;100.00
2785;BME280;57944;48.722;9.316;2023-04-07T01:47:15;98001.59;;;5.77;100.00
2785;BME280;57944;48.722;9.316;2023-04-07T01:49:46;98000.78;;;5.76;100.00
2785;BME280;57944;48.722;9.316;2023-04-07T01:52:18;98000.19;;;5.74;100.00
2785;BME280;57944;48.722;9.316;2023-04-07T01:54:49;97995.59;;;5.70;100.00
2785;BME280;57944;48.722;9.316;2023-04-07T01:57:19;97991.78;;;5.74;100.00
2785;BME280;57944;48.722;9.316;2023-04-07T01:59:57;97990.06;;;5.82;100.00
2785;BME280;57944;48.722;9.316;2023-04-07T02:02:43;97989.75;;;5.94;100.00
2785;BME280;57944;48.722;9.316;2023-04-07T02:05:18;97990.81;;;5.91;100.00
2785;BME280;57944;48.722;9.316;2023-04-07T02:07:51;97991.94;;;5.89;100.00
2785;BME280;57944;48.722;9.316;2023-04-07T02:10:24;97987.03;;;5.87;100.00
2785;BME280;57944;48.722;9.316;2023-04-07T02:12:59;97983.25;;;5.83;100.00
2785;BME280;57944;48.722;9.316;2023-04-07T02:15:35;97977.22;;;5.84;100.00
2785;BME280;57944;48.722;9.316;2023-04-07T02:18:07;97985.16;;;5.73;100.00
2785;BME280;57944;48.722;9.316;2023-04-07T02:20:40;97985.47;;;5.70;100.00
2785;BME280;57944;48.722;9.316;2023-04-07T02:23:11;97978.84;;;5.69;100.00
2785;BME280;57944;48.722;9.316;2023-04-07T02:25:42;97973.28;;;5.81;100.00
2785;BME280;57944;48.722;9.316;2023-04-07T02:28:13;97972.03;;;5.86;100.00
2785;BME280;57944;48.722;9.316;2023-04-07T02:30:47;97975.97;;;5.88;100.00
2785;BME280;57944;48.722;9.316;2023-04-07T02:33:17;97974.69;;;5.92;100.00
2785;BME280;57944;48.722;9.316;2023-04-07T02:35:47;97979.91;;;5.99;100.00
2785;BME280;57944;48.722;9.316;2023-04-07T02:38:17;97967.75;;;5.94;100.00
2785;BME280;57944;48.722;9.316;2023-04-07T02:40:48;97963.00;;;5.91;100.00
2785;BME280;57944;48.722;9.316;2023-04-07T02:43:19;97967.75;;;5.86;100.00
2785;BME280;57944;48.722;9.316;2023-04-07T02:45:53;97960.97;;;5.95;100.00
2785;BME280;57944;48.722;9.316;2023-04-07T02:48:23;97956.22;;;6.00;100.00
2785;BME280;57944;48.722;9.316;2023-04-07T02:50:53;97956.63;;;6.12;100.00
2785;BME280;57944;48.722;9.316;2023-04-07T02:53:24;97949.69;;;6.14;100.00
2785;BME280;57944;48.722;9.316;2023-04-07T02:55:54;97959.50;;;6.09;100.00
2785;BME280;57944;48.722;9.316;2023-04-07T02:58:24;97952.53;;;6.11;100.00
2785;BME280;57944;48.722;9.316;2023-04-07T03:00:57;97946.34;;;6.13;100.00
2785;BME280;57944;48.722;9.316;2023-04-07T03:03:30;97948.06;;;6.21;100.00
2785;BME280;57944;48.722;9.316;2023-04-07T03:06:12;97951.66;;;6.26;100.00
2785;BME280;57944;48.722;9.316;2023-04-07T03:08:59;97938.41;;;6.24;100.00
2785;BME280;57944;48.722;9.316;2023-04-07T03:11:29;97936.72;;;6.09;100.00
2785;BME280;57944;48.722;9.316;2023-04-07T03:14:00;97940.69;;;6.03;100.00
2785;BME280;57944;48.722;9.316;2023-04-07T03:16:34;97932.03;;;5.81;100.00
2785;BME280;57944;48.722;9.316;2023-04-07T03:19:07;97936.19;;;5.66;100.00
2785;BME280;57944;48.722;9.316;2023-04-07T03:21:42;97938.69;;;5.74;100.00
2785;BME280;57944;48.722;9.316;2023-04-07T03:24:12;97938.03;;;5.88;100.00
2785;BME280;57944;48.722;9.316;2023-04-07T03:26:45;97927.91;;;5.88;100.00
2785;BME280;57944;48.722;9.316;2023-04-07T03:29:25;97925.41;;;5.80;100.00
2785;BME280;57944;48.722;9.316;2023-04-07T03:31:58;97926.31;;;5.95;100.00
2785;BME280;57944;48.722;9.316;2023-04-07T03:34:28;97923.00;;;6.03;100.00
2785;BME280;57944;48.722;9.316;2023-04-07T03:36:58;97928.50;;;6.07;100.00
2785;BME280;57944;48.722;9.316;2023-04-07T03:39:31;97932.97;;;5.96;100.00
2785;BME280;57944;48.722;9.316;2023-04-07T03:42:11;97927.22;;;6.11;100.00
2785;BME280;57944;48.722;9.316;2023-04-07T03:44:42;97919.31;;;6.14;100.00
2785;BME280;57944;48.722;9.316;2023-04-07T03:47:16;97917.19;;;6.25;100.00
2785;BME280;57944;48.722;9.316;2023-04-07T03:49:52;97915.13;;;6.29;100.00
2785;BME280;57944;48.722;9.316;2023-04-07T03:52:22;97919.97;;;6.39;100.00
2785;BME280;57944;48.722;9.316;2023-04-07T03:54:59;97913.13;;;6.47;100.00
2785;BME280;57944;48.722;9.316;2023-04-07T03:57:31;97916.63;;;6.46;100.00
2785;BME280;57944;48.722;9.316;2023-04-07T04:00:03;97906.16;;;6.49;100.00
2785;BME280;57944;48.722;9.316;2023-04-07T04:02:44;97909.00;;;6.55;100.00
2785;BME280;57944;48.722;9.316;2023-04-07T04:05:18;97912.13;;;6.57;100.00
2785;BME280;57944;48.722;9.316;2023-04-07T04:07:49;97909.28;;;6.52;100.00
2785;BME280;57944;48.722;9.316;2023-04-07T04:10:21;97918.44;;;6.61;100.00
2785;BME280;57944;48.722;9.316;2023-04-07T04:12:53;97907.34;;;6.62;100.00
2785;BME280;57944;48.722;9.316;2023-04-07T04:15:26;97902.00;;;6.57;100.00
2785;BME280;57944;48.722;9.316;2023-04-07T04:18:00;97905.16;;;6.59;100.00
2785;BME280;57944;48.722;9.316;2023-04-07T04:20:31;97899.97;;;6.52;100.00
2785;BME280;57944;48.722;9.316;2023-04-07T04:23:04;97899.16;;;6.52;100.00
2785;BME280;57944;48.722;9.316;2023-04-07T04:25:35;97898.06;;;6.54;100.00
2785;BME280;57944;48.722;9.316;2023-04-07T04:28:09;97899.75;;;6.62;100.00
2785;BME280;57944;48.722;9.316;2023-04-07T04:30:40;97900.19;;;6.65;100.00
2785;BME280;57944;48.722;9.316;2023-04-07T04:33:13;97894.78;;;6.68;100.00
2785;BME280;57944;48.722;9.316;2023-04-07T04:35:52;97898.63;;;6.64;100.00
2785;BME280;57944;48.722;9.316;2023-04-07T04:38:24;97897.78;;;6.72;100.00
2785;BME280;57944;48.722;9.316;2023-04-07T04:41:03;97897.44;;;6.75;100.00
2785;BME280;57944;48.722;9.316;2023-04-07T04:43:33;97890.97;;;6.72;100.00
2785;BME280;57944;48.722;9.316;2023-04-07T04:46:04;97894.91;;;6.75;100.00
2785;BME280;57944;48.722;9.316;2023-04-07T04:48:42;97898.84;;;6.78;100.00
2785;BME280;57944;48.722;9.316;2023-04-07T04:51:12;97900.59;;;6.77;100.00
2785;BME280;57944;48.722;9.316;2023-04-07T04:53:46;97905.66;;;6.54;100.00
2785;BME280;57944;48.722;9.316;2023-04-07T04:56:17;97902.56;;;6.44;100.00
2785;BME280;57944;48.722;9.316;2023-04-07T04:58:49;97908.34;;;6.53;100.00
2785;BME280;57944;48.722;9.316;2023-04-07T05:01:42;97903.50;;;6.43;100.00
2785;BME280;57944;48.722;9.316;2023-04-07T05:04:18;97897.16;;;6.47;100.00
2785;BME280;57944;48.722;9.316;2023-04-07T05:06:57;97896.38;;;6.46;100.00
2785;BME280;57944;48.722;9.316;2023-04-07T05:09:30;97907.06;;;6.57;100.00
2785;BME280;57944;48.722;9.316;2023-04-07T05:12:00;97899.16;;;6.52;100.00
2785;BME280;57944;48.722;9.316;2023-04-07T05:14:37;97900.75;;;6.53;100.00
2785;BME280;57944;48.722;9.316;2023-04-07T05:17:07;97905.66;;;6.54;100.00
2785;BME280;57944;48.722;9.316;2023-04-07T05:19:41;97897.16;;;6.47;100.00
2785;BME280;57944;48.722;9.316;2023-04-07T05:22:20;97900.28;;;6.49;100.00
2785;BME280;57944;48.722;9.316;2023-04-07T05:24:51;97895.69;;;6.53;100.00
2785;BME280;57944;48.722;9.316;2023-04-07T05:27:23;97900.44;;;6.56;100.00
2785;BME280;57944;48.722;9.316;2023-04-07T05:29:59;97901.66;;;6.60;100.00
2785;BME280;57944;48.722;9.316;2023-04-07T05:32:33;97893.66;;;6.71;100.00
2785;BME280;57944;48.722;9.316;2023-04-07T05:35:13;97896.38;;;6.69;100.00
2785;BME280;57944;48.722;9.316;2023-04-07T05:37:50;97909.88;;;6.62;100.00
2785;BME280;57944;48.722;9.316;2023-04-07T05:40:20;97909.78;;;6.55;100.00
2785;BME280;57944;48.722;9.316;2023-04-07T05:42:51;97906.72;;;6.60;100.00
2785;BME280;57944;48.722;9.316;2023-04-07T05:45:21;97908.84;;;6.71;100.00
2785;BME280;57944;48.722;9.316;2023-04-07T05:47:52;97905.94;;;6.82;100.00
2785;BME280;57944;48.722;9.316;2023-04-07T05:50:33;97896.03;;;6.96;100.00
2785;BME280;57944;48.722;9.316;2023-04-07T05:53:06;97903.75;;;7.02;100.00
2785;BME280;57944;48.722;9.316;2023-04-07T05:55:37;97902.72;;;7.26;100.00
2785;BME280;57944;48.722;9.316;2023-04-07T05:58:09;97904.97;;;7.44;100.00
2785;BME280;57944;48.722;9.316;2023-04-07T06:00:43;97910.38;;;7.56;100.00
2785;BME280;57944;48.722;9.316;2023-04-07T06:03:15;97910.19;;;7.57;100.00
2785;BME280;57944;48.722;9.316;2023-04-07T06:06:11;97900.84;;;7.73;100.00
2785;BME280;57944;48.722;9.316;2023-04-07T06:08:42;97914.84;;;7.83;100.00
2785;BME280;57944;48.722;9.316;2023-04-07T06:11:12;97919.13;;;7.98;100.00
2785;BME280;57944;48.722;9.316;2023-04-07T06:13:42;97917.63;;;8.03;100.00
2785;BME280;57944;48.722;9.316;2023-04-07T06:16:13;97918.31;;;8.12;100.00
2785;BME280;57944;48.722;9.316;2023-04-07T06:18:45;97915.78;;;8.12;100.00
2785;BME280;57944;48.722;9.316;2023-04-07T06:21:18;97924.69;;;8.23;100.00
2785;BME280;57944;48.722;9.316;2023-04-07T06:23:48;97923.81;;;8.31;100.00
2785;BME280;57944;48.722;9.316;2023-04-07T06:26:19;97919.69;;;8.29;100.00
2785;BME280;57944;48.722;9.316;2023-04-07T06:28:49;97923.56;;;8.25;100.00
2785;BME280;57944;48.722;9.316;2023-04-07T06:31:20;97922.94;;;8.23;100.00
2785;BME280;57944;48.722;9.316;2023-04-07T06:33:51;97922.22;;;8.29;100.00
2785;BME280;57944;48.722;9.316;2023-04-07T06:36:24;97917.41;;;8.35;100.00
2785;BME280;57944;48.722;9.316;2023-04-07T06:38:55;97917.94;;;8.45;100.00
2785;BME280;57944;48.722;9.316;2023-04-07T06:41:25;97912.03;;;8.59;100.00
2785;BME280;57944;48.722;9.316;2023-04-07T06:43:55;97916.50;;;8.57;100.00
2785;BME280;57944;48.722;9.316;2023-04-07T06:46:25;97916.75;;;8.62;100.00
2785;BME280;57944;48.722;9.316;2023-04-07T06:48:55;97911.16;;;8.52;100.00
2785;BME280;57944;48.722;9.316;2023-04-07T06:51:28;97907.47;;;8.55;100.00
2785;BME280;57944;48.722;9.316;2023-04-07T06:53:58;97906.94;;;8.59;100.00
2785;BME280;57944;48.722;9.316;2023-04-07T06:56:28;97908.16;;;8.63;100.00
2785;BME280;57944;48.722;9.316;2023-04-07T06:58:59;97904.47;;;8.66;100.00
2785;BME280;57944;48.722;9.316;2023-04-07T07:01:30;97908.03;;;8.71;100.00
2785;BME280;57944;48.722;9.316;2023-04-07T07:04:00;97907.13;;;9.01;100.00
2785;BME280;57944;48.722;9.316;2023-04-07T07:06:34;97910.00;;;9.19;100.00
2785;BME280;57944;48.722;9.316;2023-04-07T07:09:04;97904.22;;;9.32;100.00
2785;BME280;57944;48.722;9.316;2023-04-07T07:11:34;97905.50;;;9.49;100.00
2785;BME280;57944;48.722;9.316;2023-04-07T07:14:06;97892.16;;;9.75;100.00
2785;BME280;57944;48.722;9.316;2023-04-07T07:16:36;97897.97;;;10.11;100.00
2785;BME280;57944;48.722;9.316;2023-04-07T07:19:07;97901.44;;;10.44;100.00
2785;BME280;57944;48.722;9.316;2023-04-07T07:21:40;97897.00;;;11.06;100.00
2785;BME280;57944;48.722;9.316;2023-04-07T07:24:10;97903.25;;;11.30;100.00
2785;BME280;57944;48.722;9.316;2023-04-07T07:26:40;97910.63;;;11.92;100.00
2785;BME280;57944;48.722;9.316;2023-04-07T07:29:11;97914.09;;;12.81;94.43
2785;BME280;57944;48.722;9.316;2023-04-07T07:31:42;97912.22;;;13.19;85.49
2785;BME280;57944;48.722;9.316;2023-04-07T07:34:12;97916.22;;;13.59;86.23
2785;BME280;57944;48.722;9.316;2023-04-07T07:36:45;97913.56;;;14.21;74.99
2785;BME280;57944;48.722;9.316;2023-04-07T07:39:15;97917.13;;;14.80;73.29
2785;BME280;57944;48.722;9.316;2023-04-07T07:41:45;97915.41;;;15.16;65.98
2785;BME280;57944;48.722;9.316;2023-04-07T07:44:17;97923.41;;;15.78;63.18
2785;BME280;57944;48.722;9.316;2023-04-07T07:46:49;97929.13;;;15.69;63.38
2785;BME280;57944;48.722;9.316;2023-04-07T07:49:19;97915.59;;;15.26;60.28
2785;BME280;57944;48.722;9.316;2023-04-07T07:51:52;97921.84;;;15.07;65.23
2785;BME280;57944;48.722;9.316;2023-04-07T07:54:23;97927.06;;;15.94;60.85
2785;BME280;57944;48.722;9.316;2023-04-07T07:56:53;97924.59;;;18.24;50.65
2785;BME280;57944;48.722;9.316;2023-04-07T07:59:23;97922.69;;;19.75;46.24
2785;BME280;57944;48.722;9.316;2023-04-07T08:01:56;97923.94;;;20.82;43.85
2785;BME280;57944;48.722;9.316;2023-04-07T08:04:27;97922.91;;;18.62;48.23
2785;BME280;57944;48.722;9.316;2023-04-07T08:07:00;97917.97;;;18.28;46.15
2785;BME280;57944;48.722;9.316;2023-04-07T08:09:31;97918.75;;;18.06;50.01
2785;BME280;57944;48.722;9.316;2023-04-07T08:12:01;97920.16;;;19.01;45.87
2785;BME280;57944;48.722;9.316;2023-04-07T08:14:31;97913.41;;;19.00;44.84
2785;BME280;57944;48.722;9.316;2023-04-07T08:17:02;97914.28;;;19.10;43.25
2785;BME280;57944;48.722;9.316;2023-04-07T08:19:32;97913.19;;;20.01;42.01
2785;BME280;57944;48.722;9.316;2023-04-07T08:22:05;97918.72;;;20.41;40.74
2785;BME280;57944;48.722;9.316;2023-04-07T08:24:35;97922.59;;;21.35;38.74
2785;BME280;57944;48.722;9.316;2023-04-07T08:27:05;97921.53;;;22.56;36.30
2785;BME280;57944;48.722;9.316;2023-04-07T08:29:35;97920.19;;;23.27;36.17
2785;BME280;57944;48.722;9.316;2023-04-07T08:32:05;97912.06;;;23.10;36.30
2785;BME280;57944;48.722;9.316;2023-04-07T08:34:35;97916.72;;;22.39;36.90
2785;BME280;57944;48.722;9.316;2023-04-07T08:37:08;97910.53;;;23.04;35.89
2785;BME280;57944;48.722;9.316;2023-04-07T08:39:38;97914.69;;;22.70;37.09
2785;BME280;57944;48.722;9.316;2023-04-07T08:42:09;97913.84;;;21.96;36.77
2785;BME280;57944;48.722;9.316;2023-04-07T08:44:40;97904.22;;;20.50;38.66
2785;BME280;57944;48.722;9.316;2023-04-07T08:47:11;97902.66;;;19.13;42.46
2785;BME280;57944;48.722;9.316;2023-04-07T08:49:43;97904.50;;;17.21;46.74
2785;BME280;57944;48.722;9.316;2023-04-07T08:52:17;97913.50;;;17.02;48.56
2785;BME280;57944;48.722;9.316;2023-04-07T08:54:51;97914.56;;;16.55;48.14
2785;BME280;57944;48.722;9.316;2023-04-07T08:57:22;97911.03;;;16.61;47.86
2785;BME280;57944;48.722;9.316;2023-04-07T08:59:52;97913.59;;;17.84;45.84
2785;BME280;57944;48.722;9.316;2023-04-07T09:02:23;97913.88;;;18.10;44.79
2785;BME280;57944;48.722;9.316;2023-04-07T09:04:54;97911.69;;;16.40;49.19
2785;BME280;57944;48.722;9.316;2023-04-07T09:07:26;97914.16;;;18.08;46.39
2785;BME280;57944;48.722;9.316;2023-04-07T09:09:57;97915.22;;;19.41;43.34
2785;BME280;57944;48.722;9.316;2023-04-07T09:12:28;97919.28;;;20.84;41.05
2785;BME280;57944;48.722;9.316;2023-04-07T09:14:59;97918.56;;;19.84;41.00
2785;BME280;57944;48.722;9.316;2023-04-07T09:17:29;97921.63;;;21.01;39.92
2785;BME280;57944;48.722;9.316;2023-04-07T09:20:00;97915.63;;;21.05;40.53
2785;BME280;57944;48.722;9.316;2023-04-07T09:22:37;97910.34;;;20.03;40.96
2785;BME280;57944;48.722;9.316;2023-04-07T09:25:10;97913.06;;;20.59;40.31
2785;BME280;57944;48.722;9.316;2023-04-07T09:27:40;97912.25;;;22.00;38.18
2785;BME280;57944;48.722;9.316;2023-04-07T09:30:22;97907.56;;;21.42;37.84
2785;BME280;57944;48.722;9.316;2023-04-07T09:32:52;97926.81;;;20.65;38.92
2785;BME280;57944;48.722;9.316;2023-04-07T09:35:22;97916.56;;;20.02;40.42
2785;BME280;57944;48.722;9.316;2023-04-07T09:38:03;97910.59;;;19.43;41.26
2785;BME280;57944;48.722;9.316;2023-04-07T09:40:34;97904.78;;;19.21;43.25
2785;BME280;57944;48.722;9.316;2023-04-07T09:43:05;97904.03;;;18.56;42.63
2785;BME280;57944;48.722;9.316;2023-04-07T09:45:35;97909.97;;;18.57;43.91
2785;BME280;57944;48.722;9.316;2023-04-07T09:48:05;97911.06;;;19.35;41.78
2785;BME280;57944;48.722;9.316;2023-04-07T09:50:39;97908.78;;;20.02;39.87
2785;BME280;57944;48.722;9.316;2023-04-07T09:53:14;97912.31;;;20.84;38.80
2785;BME280;57944;48.722;9.316;2023-04-07T09:55:45;97908.94;;;20.73;38.37
2785;BME280;57944;48.722;9.316;2023-04-07T09:58:16;97905.03;;;20.91;38.60
2785;BME280;57944;48.722;9.316;2023-04-07T10:00:46;97904.56;;;19.80;39.38
2785;BME280;57944;48.722;9.316;2023-04-07T10:03:17;97908.22;;;19.84;40.13
2785;BME280;57944;48.722;9.316;2023-04-07T10:05:47;97906.94;;;19.87;40.67
2785;BME280;57944;48.722;9.316;2023-04-07T10:08:20;97907.66;;;19.77;39.21
2785;BME280;57944;48.722;9.316;2023-04-07T10:10:50;97906.44;;;19.90;39.62
2785;BME280;57944;48.722;9.316;2023-04-07T10:13:21;97902.34;;;20.09;39.51
2785;BME280;57944;48.722;9.316;2023-04-07T10:15:52;97906.19;;;19.44;41.94
2785;BME280;57944;48.722;9.316;2023-04-07T10:18:25;97900.31;;;18.47;43.88
2785;BME280;57944;48.722;9.316;2023-04-07T10:20:59;97903.03;;;18.35;43.84
2785;BME280;57944;48.722;9.316;2023-04-07T10:23:42;97898.22;;;17.73;45.84
2785;BME280;57944;48.722;9.316;2023-04-07T10:26:17;97899.41;;;17.82;45.36
2785;BME280;57944;48.722;9.316;2023-04-07T10:28:52;97906.25;;;17.54;44.74
2785;BME280;57944;48.722;9.316;2023-04-07T10:31:24;97906.38;;;17.26;45.59
2785;BME280;57944;48.722;9.316;2023-04-07T10:33:54;97905.94;;;16.78;47.18
2785;BME280;57944;48.722;9.316;2023-04-07T10:36:26;97906.09;;;16.43;48.23
2785;BME280;57944;48.722;9.316;2023-04-07T10:39:23;97916.06;;;15.70;50.32
2785;BME280;57944;48.722;9.316;2023-04-07T10:41:54;97907.22;;;15.42;50.86
2785;BME280;57944;48.722;9.316;2023-04-07T10:44:46;97899.66;;;15.36;51.62
2785;BME280;57944;48.722;9.316;2023-04-07T10:47:18;97903.66;;;15.08;52.46
2785;BME280;57944;48.722;9.316;2023-04-07T10:50:16;97906.09;;;15.03;54.30
2785;BME280;57944;48.722;9.316;2023-04-07T10:52:48;97905.34;;;15.50;52.83
2785;BME280;57944;48.722;9.316;2023-04-07T10:55:33;97911.22;;;15.74;51.42
2785;BME280;57944;48.722;9.316;2023-04-07T10:58:18;97910.13;;;15.70;51.89
2785;BME280;57944;48.722;9.316;2023-04-07T11:01:16;97911.31;;;15.91;50.46
2785;BME280;57944;48.722;9.316;2023-04-07T11:03:58;97908.03;;;16.36;49.13
2785;BME280;57944;48.722;9.316;2023-04-07T11:06:30;97912.66;;;16.96;47.59
2785;BME280;57944;48.722;9.316;2023-04-07T11:09:00;97918.09;;;17.72;45.97
2785;BME280;57944;48.722;9.316;2023-04-07T11:11:38;97906.44;;;17.70;45.50
2785;BME280;57944;48.722;9.316;2023-04-07T11:14:08;97908.59;;;18.76;43.94
2785;BME280;57944;48.722;9.316;2023-04-07T11:16:40;97905.56;;;19.22;42.37
2785;BME280;57944;48.722;9.316;2023-04-07T11:19:12;97908.72;;;19.81;41.27
2785;BME280;57944;48.722;9.316;2023-04-07T11:21:42;97902.44;;;20.71;39.54
2785;BME280;57944;48.722;9.316;2023-04-07T11:24:33;97910.47;;;20.54;40.73
2785;BME280;57944;48.722;9.316;2023-04-07T11:27:11;97906.81;;;20.50;39.66
2785;BME280;57944;48.722;9.316;2023-04-07T11:29:42;97910.47;;;20.64;39.69
2785;BME280;57944;48.722;9.316;2023-04-07T11:32:12;97905.59;;;19.74;39.68
2785;BME280;57944;48.722;9.316;2023-04-07T11:34:42;97899.06;;;19.19;40.78
2785;BME280;57944;48.722;9.316;2023-04-07T11:37:19;97908.69;;;18.86;41.83
2785;BME280;57944;48.722;9.316;2023-04-07T11:39:52;97904.19;;;19.51;41.36
2785;BME280;57944;48.722;9.316;2023-04-07T11:42:38;97905.84;;;19.73;40.14
2785;BME280;57944;48.722;9.316;2023-04-07T11:45:15;97903.88;;;19.95;39.31
2785;BME280;57944;48.722;9.316;2023-04-07T11:47:46;97901.78;;;19.39;40.40
2785;BME280;57944;48.722;9.316;2023-04-07T11:50:37;97909.03;;;17.31;44.57
2785;BME280;57944;48.722;9.316;2023-04-07T11:53:08;97910.25;;;17.45;44.18
2785;BME280;57944;48.722;9.316;2023-04-07T11:55:38;97912.22;;;16.70;44.90
2785;BME280;57944;48.722;9.316;2023-04-07T11:58:11;97909.28;;;15.93;47.39
2785;BME280;57944;48.722;9.316;2023-04-07T12:00:52;97910.59;;;16.07;47.24
2785;BME280;57944;48.722;9.316;2023-04-07T12:03:23;97912.91;;;16.20;47.45
2785;BME280;57944;48.722;9.316;2023-04-07T12:05:53;97907.44;;;16.45;47.48
2785;BME280;57944;48.722;9.316;2023-04-07T12:08:35;97912.59;;;16.62;46.56
2785;BME280;57944;48.722;9.316;2023-04-07T12:11:09;97905.69;;;16.96;46.09
2785;BME280;57944;48.722;9.316;2023-04-07T12:13:43;97918.22;;;16.76;46.12
2785;BME280;57944;48.722;9.316;2023-04-07T12:16:14;97917.16;;;16.43;46.29
2785;BME280;57944;48.722;9.316;2023-04-07T12:18:44;97920.28;;;15.76;47.74
2785;BME280;57944;48.722;9.316;2023-04-07T12:21:14;97915.16;;;15.06;49.63
2785;BME280;57944;48.722;9.316;2023-04-07T12:23:45;97923.91;;;14.44;50.28
2785;BME280;57944;48.722;9.316;2023-04-07T12:26:16;97923.56;;;14.11;51.37
2785;BME280;57944;48.722;9.316;2023-04-07T12:28:52;97926.81;;;13.81;51.33
2785;BME280;57944;48.722;9.316;2023-04-07T12:31:22;97933.75;;;13.37;52.58
2785;BME280;57944;48.722;9.316;2023-04-07T12:33:52;97926.94;;;12.74;58.59
2785;BME280;57944;48.722;9.316;2023-04-07T12:36:23;97932.28;;;12.66;68.25
2785;BME280;57944;48.722;9.316;2023-04-07T12:38:53;97935.28;;;12.11;80.37
2785;BME280;57944;48.722;9.316;2023-04-07T12:41:24;97939.31;;;11.67;85.79
2785;BME280;57944;48.722;9.316;2023-04-07T12:43:57;97937.78;;;11.53;86.83
2785;BME280;57944;48.722;9.316;2023-04-07T12:46:27;97937.78;;;11.59;87.38
2785;BME280;57944;48.722;9.316;2023-04-07T12:48:57;97942.88;;;11.59;84.18
2785;BME280;57944;48.722;9.316;2023-04-07T12:51:27;97946.81;;;11.35;87.61
2785;BME280;57944;48.722;9.316;2023-04-07T12:53:59;97948.00;;;11.00;92.52
2785;BME280;57944;48.722;9.316;2023-04-07T12:56:29;97947.59;;;10.96;97.20
2785;BME280;57944;48.722;9.316;2023-04-07T12:59:02;97948.78;;;11.00;100.00
2785;BME280;57944;48.722;9.316;2023-04-07T13:01:32;97954.28;;;10.90;100.00
2785;BME280;57944;48.722;9.316;2023-04-07T13:04:03;97952.84;;;10.68;100.00
2785;BME280;57944;48.722;9.316;2023-04-07T13:06:33;97957.47;;;10.44;100.00
2785;BME280;57944;48.722;9.316;2023-04-07T13:09:04;97958.34;;;9.47;100.00
2785;BME280;57944;48.722;9.316;2023-04-07T13:11:34;97956.38;;;8.78;100.00
2785;BME280;57944;48.722;9.316;2023-04-07T13:14:07;97959.34;;;8.45;100.00
2785;BME280;57944;48.722;9.316;2023-04-07T13:16:37;97957.66;;;8.38;100.00
2785;BME280;57944;48.722;9.316;2023-04-07T13:19:10;97955.84;;;8.32;100.00
2785;BME280;57944;48.722;9.316;2023-04-07T13:21:41;97957.63;;;8.16;100.00
2785;BME280;57944;48.722;9.316;2023-04-07T13:24:14;97958.41;;;8.02;100.00
2785;BME280;57944;48.722;9.316;2023-04-07T13:26:45;97961.66;;;7.96;100.00
2785;BME280;57944;48.722;9.316;2023-04-07T13:29:18;97963.06;;;7.83;100.00
2785;BME280;57944;48.722;9.316;2023-04-07T13:31:48;97952.38;;;7.88;100.00
2785;BME280;57944;48.722;9.316;2023-04-07T13:34:19;97955.16;;;7.93;100.00
2785;BME280;57944;48.722;9.316;2023-04-07T13:36:49;97942.94;;;7.97;100.00
2785;BME280;57944;48.722;9.316;2023-04-07T13:39:19;97940.13;;;8.06;100.00
2785;BME280;57944;48.722;9.316;2023-04-07T13:41:49;97935.94;;;8.14;100.00